Time;durP1;ratioP1;P1;durP2;ratioP2;P2;SDS_P1;SDS_P2;PMS_P1;PMS_P2;Temp;Humidity;BMP_temperature;BMP_pressure;BME280_temperature;BME280_humidity;BME280_pressure;Samples;Min_cycle;Max_cycle;Signal;HPM_P1;HPM_P2
2022/09/09 00:00:21;;;;;;;2.13;0.50;;;18.40;99.90;;;;;;4121033;28;20042;-65
2022/09/09 00:02:25;;;;;;;0.20;0.20;;;18.40;99.90;;;;;;4116707;28;20110;-65
2022/09/09 00:04:32;;;;;;;0.47;0.20;;;18.40;99.90;;;;;;4122632;28;20638;-65
2022/09/09 00:07:03;;;;;;;0.52;0.30;;;18.40;99.90;;;;;;4115919;28;20031;-65
2022/09/09 00:09:18;;;;;;;1.70;0.68;;;18.40;99.90;;;;;;4137302;28;20092;-65
2022/09/09 00:11:26;;;;;;;3.03;1.05;;;18.40;99.90;;;;;;4142670;28;20173;-65
2022/09/09 00:13:51;;;;;;;2.45;0.90;;;18.30;99.90;;;;;;4117762;28;20027;-65
2022/09/09 00:16:16;;;;;;;1.80;0.73;;;18.20;99.90;;;;;;4122744;28;20590;-65
2022/09/09 00:18:25;;;;;;;1.58;0.90;;;18.10;99.90;;;;;;4125947;28;20117;-65
2022/09/09 00:20:50;;;;;;;2.03;0.80;;;18.10;99.90;;;;;;4118936;28;20495;-65
2022/09/09 00:23:03;;;;;;;2.65;1.08;;;18.00;99.90;;;;;;4127177;28;20042;-65
2022/09/09 00:25:37;;;;;;;1.80;0.80;;;17.90;99.90;;;;;;4123109;28;20060;-66
2022/09/09 00:27:45;;;;;;;1.23;0.47;;;17.90;99.90;;;;;;4119969;28;20506;-65
2022/09/09 00:29:58;;;;;;;1.85;0.50;;;17.80;99.90;;;;;;4123828;28;20117;-65
2022/09/09 00:32:11;;;;;;;0.80;0.50;;;17.80;99.90;;;;;;4114044;28;20041;-65
2022/09/09 00:34:19;;;;;;;;;;;17.70;99.90;;;;;;4123654;28;20117;-65
2022/09/09 00:36:25;;;;;;;1.20;0.43;;;17.70;99.90;;;;;;4119701;28;19973;-65
2022/09/09 00:38:31;;;;;;;1.02;0.38;;;17.70;99.90;;;;;;4120241;28;20061;-65
2022/09/09 00:40:35;;;;;;;1.10;0.40;;;17.80;99.90;;;;;;4120019;28;20546;-65
2022/09/09 00:42:41;;;;;;;1.67;0.38;;;17.80;99.90;;;;;;4114925;28;20027;-66
2022/09/09 00:44:51;;;;;;;0.90;0.40;;;17.80;99.90;;;;;;4121934;28;20066;-65
2022/09/09 00:47:11;;;;;;;2.95;0.60;;;17.80;99.90;;;;;;4141574;28;20033;-65
2022/09/09 00:49:56;;;;;;;1.95;0.90;;;17.80;99.90;;;;;;4126618;28;20802;-65
2022/09/09 00:52:18;;;;;;;1.67;0.70;;;17.80;99.90;;;;;;4125271;28;20341;-65
2022/09/09 00:54:36;;;;;;;2.33;0.98;;;17.70;99.90;;;;;;4143186;28;20057;-65
2022/09/09 00:56:42;;;;;;;1.63;0.63;;;17.60;99.90;;;;;;4124544;28;20427;-65
2022/09/09 00:59:13;;;;;;;0.85;0.60;;;17.60;99.90;;;;;;4126152;28;20495;-65
2022/09/09 01:01:13;;;;;;;1.02;0.57;;;17.60;99.90;;;;;;4115101;28;20043;-65
2022/09/09 01:03:24;;;;;;;2.40;0.82;;;17.60;99.90;;;;;;4121718;28;20475;-65
2022/09/09 01:05:34;;;;;;;0.55;0.35;;;17.50;99.90;;;;;;4124205;28;20042;-65
2022/09/09 01:07:36;;;;;;;2.03;0.60;;;17.60;99.90;;;;;;4126087;28;20041;-65
2022/09/09 01:10:09;;;;;;;1.35;0.60;;;17.60;99.90;;;;;;4123972;28;20026;-65
2022/09/09 01:12:17;;;;;;;;;;;17.50;99.90;;;;;;4115093;28;20034;-65
2022/09/09 01:14:36;;;;;;;1.55;0.50;;;17.50;99.90;;;;;;4122709;28;19909;-65
2022/09/09 01:16:37;;;;;;;2.50;0.80;;;17.50;99.90;;;;;;4138152;28;20120;-65
2022/09/09 01:18:44;;;;;;;0.68;0.50;;;17.50;99.90;;;;;;4121771;28;20035;-67
2022/09/09 01:20:50;;;;;;;1.83;0.60;;;17.50;99.90;;;;;;4119405;28;20116;-65
2022/09/09 01:22:59;;;;;;;1.20;0.60;;;17.50;99.90;;;;;;4126248;28;20038;-65
2022/09/09 01:25:09;;;;;;;1.65;0.60;;;17.50;99.90;;;;;;4122663;28;20035;-65
2022/09/09 01:27:10;;;;;;;1.40;0.45;;;17.50;99.90;;;;;;4122703;28;20032;-65
2022/09/09 01:29:14;;;;;;;1.17;0.50;;;17.50;99.90;;;;;;4124402;28;20066;-64
2022/09/09 01:31:32;;;;;;;1.85;0.80;;;17.50;99.90;;;;;;4126722;28;20053;-66
2022/09/09 01:33:32;;;;;;;2.28;0.65;;;17.50;99.90;;;;;;4121772;28;20038;-65
2022/09/09 01:35:48;;;;;;;1.30;0.75;;;17.50;99.90;;;;;;4124767;28;20026;-65
2022/09/09 01:37:48;;;;;;;1.88;0.93;;;17.50;99.90;;;;;;4123555;28;20872;-65
2022/09/09 01:39:49;;;;;;;3.17;0.98;;;17.50;99.90;;;;;;4121754;28;20113;-65
2022/09/09 01:41:50;;;;;;;3.38;1.30;;;17.50;99.90;;;;;;4123832;28;20084;-65
2022/09/09 01:43:52;;;;;;;5.18;1.70;;;17.50;99.90;;;;;;4121824;28;20073;-65
2022/09/09 01:45:55;;;;;;;3.60;1.42;;;17.60;99.90;;;;;;4123179;28;20034;-64
2022/09/09 01:47:56;;;;;;;;;;;17.60;99.90;;;;;;4122459;28;20395;-65
2022/09/09 01:49:58;;;;;;;4.40;1.83;;;17.60;99.90;;;;;;4125498;28;19913;-65
2022/09/09 01:51:59;;;;;;;4.73;1.67;;;17.60;99.90;;;;;;4127483;28;20050;-65
2022/09/09 01:54:00;;;;;;;3.40;1.48;;;17.60;99.90;;;;;;4126316;28;20399;-66
2022/09/09 01:56:16;;;;;;;4.47;1.67;;;17.50;99.90;;;;;;4122128;28;20290;-66
2022/09/09 01:58:51;;;;;;;3.45;1.65;;;17.50;99.90;;;;;;4124035;28;20427;-68
2022/09/09 02:01:10;;;;;;;5.43;1.88;;;17.50;99.90;;;;;;4126879;28;20046;-64
2022/09/09 02:03:28;;;;;;;2.92;1.33;;;17.40;99.90;;;;;;4124429;28;20047;-64
2022/09/09 02:05:54;;;;;;;4.65;1.80;;;17.40;99.90;;;;;;4124238;28;20030;-64
2022/09/09 02:08:08;;;;;;;3.15;1.73;;;17.40;99.90;;;;;;4125859;28;20035;-65
2022/09/09 02:10:20;;;;;;;3.75;1.98;;;17.40;99.90;;;;;;4123163;28;20069;-65
2022/09/09 02:12:23;;;;;;;3.42;1.60;;;17.40;99.90;;;;;;4124416;28;20038;-64
2022/09/09 02:14:30;;;;;;;3.80;1.70;;;17.30;99.90;;;;;;4123896;28;20030;-65
2022/09/09 02:16:54;;;;;;;3.03;1.30;;;17.30;99.90;;;;;;4123066;28;20514;-65
2022/09/09 02:19:01;;;;;;;2.72;1.20;;;17.30;99.90;;;;;;4119921;28;20030;-65
2022/09/09 02:21:03;;;;;;;1.67;0.90;;;17.30;99.90;;;;;;4117172;28;20035;-65
2022/09/09 02:23:05;;;;;;;2.90;1.23;;;17.30;99.90;;;;;;4121199;28;20046;-65
2022/09/09 02:25:10;;;;;;;1.80;0.80;;;17.20;99.90;;;;;;4141042;28;20486;-66
2022/09/09 02:27:12;;;;;;;2.05;0.68;;;17.20;99.90;;;;;;4142467;28;20450;-65
2022/09/09 02:29:18;;;;;;;2.28;1.00;;;17.20;99.90;;;;;;4124399;28;20174;-65
2022/09/09 02:31:21;;;;;;;1.58;1.10;;;17.20;99.90;;;;;;4134046;28;20445;-65
2022/09/09 02:33:26;;;;;;;1.95;1.13;;;17.20;99.90;;;;;;4125097;28;20112;-65
2022/09/09 02:35:30;;;;;;;3.42;1.20;;;17.10;99.90;;;;;;4121026;28;20063;-65
2022/09/09 02:37:38;;;;;;;2.35;1.20;;;17.20;99.90;;;;;;4124484;28;20085;-65
2022/09/09 02:39:39;;;;;;;2.42;1.00;;;17.20;99.90;;;;;;4119081;28;20038;-65
2022/09/09 02:41:41;;;;;;;2.75;1.05;;;17.20;99.90;;;;;;4124740;28;20164;-65
2022/09/09 02:43:42;;;;;;;2.03;0.85;;;17.20;99.90;;;;;;4126063;28;20101;-65
2022/09/09 02:46:02;;;;;;;1.77;0.63;;;17.20;99.90;;;;;;4124411;28;20104;-73
2022/09/09 02:48:23;;;;;;;3.95;1.30;;;17.20;99.90;;;;;;4121396;28;20545;-73
2022/09/09 02:50:35;;;;;;;1.92;0.98;;;17.20;99.90;;;;;;4121554;28;20041;-65
2022/09/09 02:53:02;;;;;;;1.67;0.68;;;17.20;99.90;;;;;;4124130;28;20049;-65
2022/09/09 02:55:11;;;;;;;2.58;1.02;;;17.20;99.90;;;;;;4125370;28;20116;-65
2022/09/09 02:57:35;;;;;;;1.02;0.80;;;17.20;99.90;;;;;;4124961;28;20030;-65
2022/09/09 02:59:36;;;;;;;1.95;0.98;;;17.20;99.90;;;;;;4120285;28;20026;-66
2022/09/09 03:01:39;;;;;;;2.63;0.98;;;17.20;99.90;;;;;;4116336;28;20487;-65
2022/09/09 03:03:42;;;;;;;5.45;1.15;;;17.10;99.90;;;;;;4122919;28;20050;-65
2022/09/09 03:05:44;;;;;;;5.55;1.17;;;17.10;99.90;;;;;;4123079;28;20029;-65
2022/09/09 03:07:44;;;;;;;2.55;1.10;;;17.10;99.90;;;;;;4126418;28;20033;-65
2022/09/09 03:09:45;;;;;;;3.55;1.08;;;17.10;99.90;;;;;;4124231;28;20432;-65
2022/09/09 03:11:46;;;;;;;2.85;1.27;;;17.10;99.90;;;;;;4126409;28;20116;-65
2022/09/09 03:13:46;;;;;;;1.95;0.75;;;17.10;99.90;;;;;;4117413;28;20085;-65
2022/09/09 03:15:48;;;;;;;3.72;1.10;;;17.10;99.90;;;;;;4123767;28;20039;-65
2022/09/09 03:17:48;;;;;;;2.97;1.00;;;17.10;99.90;;;;;;4113010;28;20395;-65
2022/09/09 03:19:49;;;;;;;6.07;1.20;;;17.10;99.90;;;;;;4119652;28;20031;-65
2022/09/09 03:21:50;;;;;;;2.67;0.93;;;17.10;99.90;;;;;;4121394;28;20109;-65
2022/09/09 03:23:51;;;;;;;2.08;0.90;;;17.10;99.90;;;;;;4116930;28;20047;-65
2022/09/09 03:25:53;;;;;;;1.35;0.65;;;17.10;99.90;;;;;;4121820;28;20038;-65
2022/09/09 03:27:54;;;;;;;2.80;0.80;;;17.10;99.90;;;;;;4114197;28;20039;-65
2022/09/09 03:29:55;;;;;;;1.17;0.65;;;17.20;99.90;;;;;;4121842;28;20129;-65
2022/09/09 03:31:56;;;;;;;3.33;0.90;;;17.20;99.90;;;;;;4120517;28;20041;-65
2022/09/09 03:33:58;;;;;;;2.05;0.95;;;17.20;99.90;;;;;;4118685;28;20433;-66
2022/09/09 03:35:58;;;;;;;3.40;1.20;;;17.20;99.90;;;;;;4121515;28;20027;-65
2022/09/09 03:38:00;;;;;;;2.70;0.68;;;17.10;99.90;;;;;;4121104;28;20061;-65
2022/09/09 03:40:01;;;;;;;3.08;1.08;;;17.20;99.90;;;;;;4124791;28;20495;-65
2022/09/09 03:42:03;;;;;;;3.28;1.20;;;17.20;99.90;;;;;;4122044;28;20105;-65
2022/09/09 03:44:04;;;;;;;3.17;0.77;;;17.20;99.90;;;;;;4118122;28;20062;-65
2022/09/09 03:46:04;;;;;;;6.28;1.15;;;17.20;99.90;;;;;;4119764;28;20034;-65
2022/09/09 03:48:06;;;;;;;3.55;1.13;;;17.20;99.90;;;;;;4125246;28;20035;-65
2022/09/09 03:50:09;;;;;;;3.28;0.73;;;17.20;99.90;;;;;;4124275;28;20030;-65
2022/09/09 03:52:10;;;;;;;1.35;0.70;;;17.20;99.90;;;;;;4123472;28;20031;-65
2022/09/09 03:54:10;;;;;;;2.22;0.82;;;17.20;99.90;;;;;;4120621;28;20069;-65
2022/09/09 03:56:11;;;;;;;2.38;0.77;;;17.20;99.90;;;;;;4117871;28;20044;-65
2022/09/09 03:58:15;;;;;;;3.42;0.95;;;17.20;99.90;;;;;;4119309;28;20034;-65
2022/09/09 04:00:16;;;;;;;2.03;0.82;;;17.20;99.90;;;;;;4121172;28;20093;-65
2022/09/09 04:02:17;;;;;;;3.45;1.02;;;17.20;99.90;;;;;;4120590;28;20042;-66
2022/09/09 04:04:19;;;;;;;6.72;1.08;;;17.20;99.90;;;;;;4118287;28;20070;-65
2022/09/09 04:06:21;;;;;;;3.88;1.17;;;17.20;99.90;;;;;;4144641;28;20061;-66
2022/09/09 04:08:22;;;;;;;2.85;0.90;;;17.20;99.90;;;;;;4120466;28;20039;-66
2022/09/09 04:10:23;;;;;;;1.45;0.80;;;17.10;99.90;;;;;;4126758;28;20050;-66
2022/09/09 04:12:23;;;;;;;3.17;0.90;;;17.20;99.90;;;;;;4120523;28;20030;-66
2022/09/09 04:14:28;;;;;;;2.63;0.90;;;17.20;99.90;;;;;;4124288;28;20042;-65
2022/09/09 04:16:29;;;;;;;7.63;1.38;;;17.20;99.90;;;;;;4122667;28;20484;-65
2022/09/09 04:18:30;;;;;;;1.05;0.63;;;17.10;99.90;;;;;;4126290;28;20101;-65
2022/09/09 04:20:30;;;;;;;3.58;1.17;;;17.10;99.90;;;;;;4123933;28;20373;-65
2022/09/09 04:22:31;;;;;;;2.30;0.95;;;17.10;99.90;;;;;;4127319;28;20034;-65
2022/09/09 04:24:32;;;;;;;5.50;1.10;;;17.10;99.90;;;;;;4122440;28;20138;-65
2022/09/09 04:26:33;;;;;;;2.55;1.20;;;17.10;99.90;;;;;;4122647;28;20034;-65
2022/09/09 04:28:35;;;;;;;5.50;1.00;;;17.20;99.90;;;;;;4120712;28;20059;-65
2022/09/09 04:30:36;;;;;;;1.98;0.85;;;17.20;99.90;;;;;;4116185;28;20049;-65
2022/09/09 04:32:36;;;;;;;2.88;0.98;;;17.20;99.90;;;;;;4119432;28;20038;-65
2022/09/09 04:34:37;;;;;;;3.80;1.17;;;17.10;99.90;;;;;;4123293;28;20061;-65
2022/09/09 04:36:39;;;;;;;4.57;1.10;;;17.20;99.90;;;;;;4122278;28;20049;-66
2022/09/09 04:38:39;;;;;;;3.38;0.93;;;17.20;99.90;;;;;;4124012;28;20035;-65
2022/09/09 04:40:49;;;;;;;2.17;0.82;;;17.20;99.90;;;;;;4122910;28;20030;-65
2022/09/09 04:42:50;;;;;;;3.63;1.10;;;17.20;99.90;;;;;;4127185;28;20034;-65
2022/09/09 04:44:50;;;;;;;2.75;1.00;;;17.20;99.90;;;;;;4125953;28;20096;-64
2022/09/09 04:46:51;;;;;;;2.85;0.93;;;17.20;99.90;;;;;;4120569;28;20165;-65
2022/09/09 04:48:52;;;;;;;3.10;1.00;;;17.20;99.90;;;;;;4137705;28;20062;-65
2022/09/09 04:50:58;;;;;;;2.95;1.30;;;17.30;99.90;;;;;;4117377;28;20042;-65
2022/09/09 04:53:03;;;;;;;4.32;0.98;;;17.20;99.90;;;;;;4118280;28;20044;-65
2022/09/09 04:55:04;;;;;;;5.43;1.27;;;17.20;99.90;;;;;;4125889;28;20490;-65
2022/09/09 04:57:05;;;;;;;3.38;1.15;;;17.20;99.90;;;;;;4120247;28;20030;-65
2022/09/09 04:59:05;;;;;;;4.05;1.35;;;17.20;99.90;;;;;;4126635;28;20403;-65
2022/09/09 05:01:08;;;;;;;5.38;1.60;;;17.20;99.90;;;;;;4120956;28;20791;-65
2022/09/09 05:03:09;;;;;;;3.45;1.40;;;17.20;99.90;;;;;;4122808;28;20046;-65
2022/09/09 05:05:11;;;;;;;3.80;1.20;;;17.20;99.90;;;;;;4124863;28;20570;-64
2022/09/09 05:07:11;;;;;;;2.45;0.95;;;17.20;99.90;;;;;;4124241;28;20038;-64
2022/09/09 05:09:12;;;;;;;2.45;1.02;;;17.20;99.90;;;;;;4124111;28;20073;-63
2022/09/09 05:11:16;;;;;;;2.80;1.17;;;17.30;99.90;;;;;;4124191;28;20042;-63
2022/09/09 05:13:17;;;;;;;2.42;1.10;;;17.30;99.90;;;;;;4122435;28;20035;-63
2022/09/09 05:15:17;;;;;;;2.70;1.00;;;17.30;99.90;;;;;;4124159;28;20041;-63
2022/09/09 05:17:18;;;;;;;3.55;1.13;;;17.30;99.90;;;;;;4122593;28;20034;-63
2022/09/09 05:19:19;;;;;;;8.73;1.52;;;17.30;99.90;;;;;;4123141;28;20046;-63
2022/09/09 05:21:22;;;;;;;2.25;1.15;;;17.30;99.90;;;;;;4120242;28;20031;-64
2022/09/09 05:23:23;;;;;;;4.45;1.38;;;17.30;99.90;;;;;;4119214;28;20034;-64
2022/09/09 05:25:25;;;;;;;2.75;0.93;;;17.30;99.90;;;;;;4129211;28;20128;-63
2022/09/09 05:27:26;;;;;;;2.58;1.10;;;17.30;99.90;;;;;;4124110;28;20030;-67
2022/09/09 05:29:27;;;;;;;3.10;1.10;;;17.30;99.90;;;;;;4122222;28;20037;-64
2022/09/09 05:31:30;;;;;;;3.08;1.15;;;17.30;99.90;;;;;;4122478;28;20101;-68
2022/09/09 05:33:31;;;;;;;4.80;1.05;;;17.40;99.90;;;;;;4124325;28;20454;-64
2022/09/09 05:35:33;;;;;;;2.50;0.95;;;17.40;99.90;;;;;;4120813;28;20126;-65
2022/09/09 05:37:34;;;;;;;2.78;1.35;;;17.40;99.90;;;;;;4129639;28;20026;-64
2022/09/09 05:39:36;;;;;;;5.88;1.23;;;17.30;99.90;;;;;;4122825;28;20480;-64
2022/09/09 05:41:37;;;;;;;4.03;1.37;;;17.30;99.90;;;;;;4123798;28;20030;-64
2022/09/09 05:43:38;;;;;;;7.50;1.40;;;17.30;99.90;;;;;;4130664;28;20060;-64
2022/09/09 05:45:38;;;;;;;7.10;1.50;;;17.30;99.90;;;;;;4121874;28;20977;-65
2022/09/09 05:47:39;;;;;;;3.13;1.40;;;17.40;99.90;;;;;;4112322;28;20112;-64
2022/09/09 05:49:40;;;;;;;4.78;1.55;;;17.30;99.90;;;;;;4123872;28;20487;-65
2022/09/09 05:51:40;;;;;;;4.35;1.85;;;17.40;99.90;;;;;;4122394;28;20403;-64
2022/09/09 05:53:42;;;;;;;6.20;2.15;;;17.40;99.90;;;;;;4113203;28;20047;-65
2022/09/09 05:55:44;;;;;;;5.53;2.65;;;17.40;99.90;;;;;;4123352;28;20034;-64
2022/09/09 05:57:48;;;;;;;5.20;2.17;;;17.40;99.90;;;;;;4124393;28;20065;-64
2022/09/09 05:59:49;;;;;;;6.35;2.40;;;17.40;99.90;;;;;;4123500;28;20093;-64
2022/09/09 06:01:50;;;;;;;7.55;2.63;;;17.40;99.90;;;;;;4122877;28;20035;-64
2022/09/09 06:03:51;;;;;;;8.70;2.45;;;17.40;99.90;;;;;;4112322;28;20054;-64
2022/09/09 06:06:06;;;;;;;5.00;2.20;;;17.40;99.90;;;;;;4125792;28;20117;-64
2022/09/09 06:08:07;;;;;;;5.88;1.83;;;17.50;99.90;;;;;;4103272;28;20039;-64
2022/09/09 06:10:08;;;;;;;5.28;2.17;;;17.40;99.90;;;;;;4122945;28;20517;-65
2022/09/09 06:12:09;;;;;;;8.43;2.00;;;17.40;99.90;;;;;;4129713;28;20038;-65
2022/09/09 06:14:10;;;;;;;4.50;1.85;;;17.40;99.90;;;;;;4123110;28;20049;-64
2022/09/09 06:16:12;;;;;;;7.10;2.38;;;17.50;99.90;;;;;;4123958;28;20091;-65
2022/09/09 06:18:13;;;;;;;;;;;17.50;99.90;;;;;;4124439;28;20050;-64
2022/09/09 06:20:14;;;;;;;8.10;2.67;;;17.50;99.90;;;;;;4121237;28;21140;-64
2022/09/09 06:22:14;;;;;;;5.68;2.53;;;17.60;99.90;;;;;;4129093;28;20771;-64
2022/09/09 06:24:17;;;;;;;4.68;1.83;;;17.60;99.90;;;;;;4123966;28;20434;-64
2022/09/09 06:26:19;;;;;;;7.05;2.67;;;17.70;99.90;;;;;;4123471;28;20042;-63
2022/09/09 06:28:19;;;;;;;8.15;2.10;;;17.80;99.90;;;;;;4123328;28;20103;-64
2022/09/09 06:30:20;;;;;;;4.28;1.70;;;17.90;99.90;;;;;;4120814;28;20046;-64
2022/09/09 06:32:20;;;;;;;6.93;1.98;;;18.00;99.90;;;;;;4123422;28;20104;-64
2022/09/09 06:34:21;;;;;;;4.57;1.98;;;18.00;99.90;;;;;;4124060;28;20038;-64
2022/09/09 06:36:33;;;;;;;5.78;2.03;;;18.00;99.90;;;;;;4120779;28;20105;-65
2022/09/09 06:38:33;;;;;;;5.30;1.95;;;18.10;99.90;;;;;;4119080;28;20046;-64
2022/09/09 06:40:35;;;;;;;6.95;2.13;;;18.10;99.90;;;;;;4121018;28;20372;-64
2022/09/09 06:42:35;;;;;;;4.03;1.65;;;18.10;99.90;;;;;;4122544;28;20030;-64
2022/09/09 06:44:36;;;;;;;4.00;1.40;;;18.20;99.90;;;;;;4124326;28;20057;-64
2022/09/09 06:46:37;;;;;;;4.30;1.48;;;18.40;99.90;;;;;;4120337;28;20495;-64
2022/09/09 06:48:44;;;;;;;2.90;1.20;;;18.60;99.90;;;;;;4114173;28;20073;-64
2022/09/09 06:50:44;;;;;;;6.63;1.67;;;18.90;99.90;;;;;;4119866;28;20157;-64
2022/09/09 06:52:47;;;;;;;5.72;1.48;;;19.20;99.90;;;;;;4122741;28;20872;-64
2022/09/09 06:54:48;;;;;;;5.30;1.48;;;19.40;99.90;;;;;;4120601;28;20104;-64
2022/09/09 06:56:49;;;;;;;6.07;1.65;;;19.70;99.90;;;;;;4119554;28;20121;-65
2022/09/09 06:58:52;;;;;;;3.55;1.33;;;20.00;99.90;;;;;;4119928;28;20049;-64
2022/09/09 07:00:52;;;;;;;4.72;1.48;;;20.20;99.90;;;;;;4121367;28;20515;-65
2022/09/09 07:02:53;;;;;;;4.30;1.38;;;20.40;99.90;;;;;;4123134;28;20125;-64
2022/09/09 07:04:53;;;;;;;4.50;1.38;;;20.60;99.90;;;;;;4122932;28;20395;-64
2022/09/09 07:06:54;;;;;;;4.75;1.45;;;20.80;99.90;;;;;;4120403;28;20097;-65
2022/09/09 07:09:01;;;;;;;6.35;1.63;;;20.90;99.90;;;;;;4122628;28;20038;-66
2022/09/09 07:11:06;;;;;;;4.60;1.30;;;21.10;99.90;;;;;;4110292;28;20035;-66
2022/09/09 07:13:07;;;;;;;7.45;1.60;;;21.10;99.90;;;;;;4107500;28;20042;-64
2022/09/09 07:15:08;;;;;;;7.47;1.50;;;21.20;99.90;;;;;;4108160;28;20039;-64
2022/09/09 07:17:09;;;;;;;5.05;1.48;;;21.30;99.90;;;;;;4107392;28;20122;-64
2022/09/09 07:19:11;;;;;;;5.00;1.75;;;21.40;99.90;;;;;;4106884;28;20037;-65
2022/09/09 07:21:14;;;;;;;5.88;1.55;;;21.40;99.90;;;;;;4107558;28;20039;-64
2022/09/09 07:23:14;;;;;;;7.03;1.67;;;21.40;99.90;;;;;;4109459;28;20584;-65
2022/09/09 07:25:17;;;;;;;6.90;1.40;;;21.50;99.90;;;;;;4110584;28;20131;-64
2022/09/09 07:27:18;;;;;;;4.10;1.08;;;21.40;99.90;;;;;;4110915;28;20053;-64
2022/09/09 07:29:18;;;;;;;5.95;1.38;;;21.40;99.90;;;;;;4123297;28;20038;-64
2022/09/09 07:31:30;;;;;;;5.78;1.70;;;21.30;99.90;;;;;;4111524;28;20043;-65
2022/09/09 07:33:33;;;;;;;6.72;1.63;;;21.40;99.90;;;;;;4124976;28;20038;-65
2022/09/09 07:35:33;;;;;;;4.10;0.95;;;21.40;99.90;;;;;;4122680;28;20061;-64
2022/09/09 07:37:37;;;;;;;6.38;1.30;;;21.30;99.90;;;;;;4130037;28;20057;-65
2022/09/09 07:39:38;;;;;;;6.57;1.25;;;21.40;99.90;;;;;;4127338;28;20064;-64
2022/09/09 07:41:41;;;;;;;6.78;1.60;;;21.40;99.90;;;;;;4123943;28;20034;-65
2022/09/09 07:43:44;;;;;;;3.50;1.10;;;21.50;99.90;;;;;;4125624;28;20093;-68
2022/09/09 07:45:44;;;;;;;6.50;1.52;;;21.50;99.90;;;;;;4125072;28;20034;-64
2022/09/09 07:47:45;;;;;;;6.93;1.70;;;21.50;99.90;;;;;;4125100;28;20041;-64
2022/09/09 07:49:46;;;;;;;7.22;1.65;;;21.30;99.90;;;;;;4123525;28;20037;-65
2022/09/09 07:51:48;;;;;;;6.97;1.20;;;21.20;99.90;;;;;;4125440;28;20046;-65
2022/09/09 07:53:52;;;;;;;5.57;1.38;;;21.20;99.90;;;;;;4126419;28;20507;-64
2022/09/09 07:55:53;;;;;;;5.78;1.40;;;21.20;99.90;;;;;;4141000;28;20149;-64
2022/09/09 07:57:55;;;;;;;6.32;1.70;;;21.10;99.90;;;;;;4125232;28;20218;-67
2022/09/09 07:59:57;;;;;;;5.63;1.52;;;21.10;99.90;;;;;;4124311;28;20038;-64
2022/09/09 08:01:58;;;;;;;6.75;1.58;;;21.10;99.90;;;;;;4122421;28;20107;-64
2022/09/09 08:04:01;;;;;;;5.55;1.58;;;20.90;99.90;;;;;;4125146;28;20069;-64
2022/09/09 08:06:07;;;;;;;5.65;1.40;;;20.90;99.90;;;;;;4123474;28;20394;-64
2022/09/09 08:08:08;;;;;;;7.97;1.85;;;20.90;99.90;;;;;;4121614;28;20132;-64
2022/09/09 08:10:09;;;;;;;5.63;1.55;;;20.90;99.90;;;;;;4123223;28;20054;-65
2022/09/09 08:12:10;;;;;;;5.30;1.55;;;20.90;99.90;;;;;;4125988;28;20031;-64
2022/09/09 08:14:11;;;;;;;7.10;1.45;;;21.00;99.90;;;;;;4125179;28;20407;-64
2022/09/09 08:16:15;;;;;;;5.03;1.35;;;21.00;99.90;;;;;;4123763;28;20101;-64
2022/09/09 08:18:15;;;;;;;2.50;1.05;;;21.00;99.90;;;;;;4122670;28;20038;-64
2022/09/09 08:20:16;;;;;;;5.53;1.30;;;21.10;99.90;;;;;;4125325;28;20584;-64
2022/09/09 08:22:16;;;;;;;4.85;1.67;;;21.10;99.90;;;;;;4123545;28;20066;-64
2022/09/09 08:24:19;;;;;;;6.80;1.67;;;21.10;99.90;;;;;;4130618;28;20153;-64
2022/09/09 08:26:23;;;;;;;5.50;1.52;;;21.10;99.90;;;;;;4125253;28;20046;-64
2022/09/09 08:28:23;;;;;;;4.72;1.60;;;21.20;99.90;;;;;;4124539;28;20048;-66
2022/09/09 08:30:24;;;;;;;4.93;1.13;;;21.10;99.90;;;;;;4123355;28;20129;-65
2022/09/09 08:32:26;;;;;;;4.05;1.38;;;21.10;99.90;;;;;;4124613;28;20141;-64
2022/09/09 08:34:26;;;;;;;4.45;1.42;;;21.10;99.90;;;;;;4124667;28;20042;-64
2022/09/09 08:36:29;;;;;;;3.05;1.00;;;21.00;99.90;;;;;;4123348;28;20048;-64
2022/09/09 08:38:30;;;;;;;3.28;1.10;;;21.00;99.90;;;;;;4123072;28;20070;-64
2022/09/09 08:40:35;;;;;;;5.25;1.20;;;21.00;99.90;;;;;;4124002;28;20045;-65
2022/09/09 08:42:50;;;;;;;6.82;1.42;;;21.10;99.90;;;;;;4122418;28;20066;-64
2022/09/09 08:45:11;;;;;;;6.90;1.65;;;20.90;99.90;;;;;;4126401;28;20050;-63
2022/09/09 08:47:39;;;;;;;4.95;1.52;;;20.90;99.90;;;;;;4114119;28;20054;-64
2022/09/09 08:50:19;;;;;;;5.32;1.35;;;20.80;99.90;;;;;;4137701;28;21061;-64
2022/09/09 08:52:28;;;;;;;5.90;1.40;;;20.60;99.90;;;;;;4125205;28;20053;-64
2022/09/09 08:54:34;;;;;;;6.10;1.67;;;20.60;99.90;;;;;;4124790;28;20043;-64
2022/09/09 08:56:36;;;;;;;5.90;1.50;;;20.50;99.90;;;;;;4136214;28;20070;-64
2022/09/09 08:58:48;;;;;;;3.57;1.03;;;20.40;99.90;;;;;;4122922;28;21481;-65
2022/09/09 09:01:00;;;;;;;4.85;1.67;;;20.30;99.90;;;;;;4135931;28;20049;-64
2022/09/09 09:03:23;;;;;;;5.43;1.48;;;20.40;99.90;;;;;;4122408;28;20097;-64
2022/09/09 09:05:42;;;;;;;2.55;1.17;;;20.40;99.90;;;;;;4120413;28;20046;-65
2022/09/09 09:08:06;;;;;;;5.75;1.48;;;20.40;99.90;;;;;;4121036;28;20030;-65
2022/09/09 09:10:44;;;;;;;4.72;1.45;;;20.30;99.90;;;;;;4121725;28;20054;-66
2022/09/09 09:12:47;;;;;;;8.07;1.55;;;20.30;99.90;;;;;;4122199;28;20030;-64
2022/09/09 09:14:48;;;;;;;2.78;1.02;;;20.20;99.90;;;;;;4138516;28;20034;-65
2022/09/09 09:17:33;;;;;;;4.57;1.42;;;20.20;99.90;;;;;;4122278;28;20030;-65
2022/09/09 09:19:35;;;;;;;4.93;1.45;;;20.20;99.90;;;;;;4129534;28;20035;-64
2022/09/09 09:21:46;;;;;;;2.33;0.88;;;20.10;99.90;;;;;;4110105;28;20097;-65
2022/09/09 09:24:00;;;;;;;3.40;0.98;;;20.00;99.90;;;;;;4118314;28;20047;-67
2022/09/09 09:26:01;;;;;;;4.50;1.27;;;19.90;99.90;;;;;;4121498;28;20034;-64
2022/09/09 09:28:12;;;;;;;4.38;1.58;;;19.90;99.90;;;;;;4122195;28;20034;-64
2022/09/09 09:30:20;;;;;;;3.00;0.85;;;19.90;99.90;;;;;;4121463;28;20395;-64
2022/09/09 09:32:22;;;;;;;4.25;1.02;;;19.90;99.90;;;;;;4122559;28;20038;-64
2022/09/09 09:34:24;;;;;;;8.98;2.03;;;19.90;99.90;;;;;;4123057;28;20035;-65
2022/09/09 09:36:40;;;;;;;3.78;1.00;;;19.80;99.90;;;;;;4121349;28;20030;-64
2022/09/09 09:38:52;;;;;;;3.10;0.90;;;19.90;99.90;;;;;;4126323;28;20034;-64
2022/09/09 09:40:58;;;;;;;3.20;0.98;;;20.00;99.90;;;;;;4120695;28;20030;-64
2022/09/09 09:43:00;;;;;;;3.35;0.88;;;20.10;99.90;;;;;;4121212;28;20066;-63
2022/09/09 09:45:10;;;;;;;;;;;20.20;99.90;;;;;;4122025;28;20061;-63
2022/09/09 09:47:15;;;;;;;3.05;0.98;;;20.30;99.90;;;;;;4120384;28;20394;-65
2022/09/09 09:49:17;;;;;;;5.00;1.67;;;20.40;99.90;;;;;;4121141;28;20121;-64
2022/09/09 09:51:20;;;;;;;2.97;1.20;;;20.60;99.90;;;;;;4121278;28;20065;-65
2022/09/09 09:53:33;;;;;;;4.13;1.27;;;20.70;99.90;;;;;;4113689;28;20352;-65
2022/09/09 09:55:35;;;;;;;3.38;1.13;;;20.80;99.90;;;;;;4120837;28;20030;-65
2022/09/09 09:57:36;;;;;;;3.58;1.00;;;20.90;99.90;;;;;;4121299;28;20034;-64
2022/09/09 09:59:39;;;;;;;5.32;1.33;;;21.00;99.90;;;;;;4121640;28;20097;-63
2022/09/09 10:01:40;;;;;;;4.07;1.20;;;21.00;99.90;;;;;;4120255;28;20041;-65
2022/09/09 10:03:51;;;;;;;8.25;1.58;;;21.00;99.90;;;;;;4122418;28;20073;-66
2022/09/09 10:05:52;;;;;;;2.60;0.80;;;21.00;99.90;;;;;;4123306;28;20487;-64
2022/09/09 10:08:09;;;;;;;3.08;0.80;;;21.00;99.90;;;;;;4121091;28;20041;-64
2022/09/09 10:10:20;;;;;;;5.20;1.33;;;21.00;99.90;;;;;;4119956;28;20034;-63
2022/09/09 10:12:44;;;;;;;3.47;0.90;;;21.00;99.90;;;;;;4121618;28;20039;-64
2022/09/09 10:15:05;;;;;;;3.60;1.20;;;20.90;99.90;;;;;;4120252;28;20042;-63
2022/09/09 10:17:32;;;;;;;3.00;0.90;;;20.80;99.90;;;;;;4120164;28;20092;-64
2022/09/09 10:19:35;;;;;;;4.97;1.10;;;20.80;99.90;;;;;;4117585;28;20031;-64
2022/09/09 10:21:42;;;;;;;2.30;0.90;;;20.70;99.90;;;;;;4108561;28;20043;-64
2022/09/09 10:24:05;;;;;;;4.85;1.35;;;20.70;99.90;;;;;;4109400;28;20049;-64
2022/09/09 10:26:35;;;;;;;3.25;1.05;;;20.60;99.90;;;;;;4120624;28;20038;-64
2022/09/09 10:29:10;;;;;;;4.18;1.20;;;20.60;99.90;;;;;;4119452;28;20731;-64
2022/09/09 10:31:30;;;;;;;4.88;1.23;;;20.50;99.90;;;;;;4111136;28;20717;-65
2022/09/09 10:34:03;;;;;;;3.65;0.98;;;20.40;99.90;;;;;;4121856;28;20034;-64
2022/09/09 10:36:33;;;;;;;3.63;1.30;;;20.40;99.90;;;;;;4109447;28;20035;-64
2022/09/09 10:38:37;;;;;;;3.72;1.35;;;20.30;99.90;;;;;;4116824;28;20038;-63
2022/09/09 10:41:10;;;;;;;6.13;1.73;;;20.30;99.90;;;;;;4119556;28;20039;-65
2022/09/09 10:43:45;;;;;;;6.35;1.30;;;20.30;99.90;;;;;;4119108;28;20043;-64
2022/09/09 10:46:12;;;;;;;2.92;1.10;;;20.20;99.90;;;;;;4121362;28;20038;-64
2022/09/09 10:48:47;;;;;;;3.83;1.00;;;20.20;99.90;;;;;;4120603;28;20447;-65
2022/09/09 10:51:43;;;;;;;2.08;0.80;;;20.30;99.90;;;;;;4120969;28;20039;-64
2022/09/09 10:53:58;;;;;;;2.97;0.95;;;20.30;99.90;;;;;;4103652;28;20037;-64
2022/09/09 10:56:10;;;;;;;5.82;1.38;;;20.30;99.90;;;;;;4119369;28;20105;-64
2022/09/09 10:58:18;;;;;;;3.10;0.88;;;20.30;99.90;;;;;;4121571;28;20026;-64
2022/09/09 11:00:21;;;;;;;3.15;0.90;;;20.30;99.90;;;;;;4121380;28;20030;-64